createdAt,value
2018-12-13T00:00:18.588Z,1.10
2018-12-13T00:02:44.652Z,1.43
2018-12-13T00:05:10.596Z,1.53
2018-12-13T00:07:36.567Z,1.30
2018-12-13T00:10:02.568Z,1.57
2018-12-13T00:12:28.542Z,1.40
2018-12-13T00:14:54.552Z,2.10
2018-12-13T00:17:20.543Z,1.50
2018-12-13T00:19:46.544Z,1.00
2018-12-13T00:22:12.545Z,1.10
2018-12-13T00:24:38.539Z,1.47
2018-12-13T00:27:04.511Z,1.30
2018-12-13T00:29:30.463Z,1.03
2018-12-13T00:31:56.424Z,1.50
2018-12-13T00:34:22.421Z,1.20
2018-12-13T00:36:48.385Z,1.37
2018-12-13T00:39:14.405Z,1.30
2018-12-13T00:41:40.389Z,1.17
2018-12-13T00:44:06.391Z,1.27
2018-12-13T00:46:32.382Z,1.00
2018-12-13T00:48:58.376Z,1.40
2018-12-13T00:51:24.357Z,1.10
2018-12-13T00:53:50.330Z,1.13
2018-12-13T00:56:16.315Z,1.47
2018-12-13T00:58:42.316Z,1.10
2018-12-13T01:01:08.295Z,1.67
2018-12-13T01:03:34.301Z,1.43
2018-12-13T01:06:00.309Z,1.07
2018-12-13T01:08:26.308Z,1.30
2018-12-13T01:10:52.257Z,1.40
2018-12-13T01:13:18.255Z,1.40
2018-12-13T01:15:44.244Z,2.13
2018-12-13T01:18:10.241Z,1.40
2018-12-13T01:20:36.251Z,1.17
2018-12-13T01:23:02.261Z,1.30
2018-12-13T01:25:28.248Z,1.03
2018-12-13T01:27:54.235Z,1.10
2018-12-13T01:30:20.228Z,1.27
2018-12-13T01:32:46.213Z,1.37
2018-12-13T01:35:12.181Z,1.67
2018-12-13T01:37:38.170Z,1.37
2018-12-13T01:40:04.139Z,1.30
2018-12-13T01:42:30.122Z,1.23
2018-12-13T01:44:56.119Z,0.90
2018-12-13T01:47:22.104Z,1.27
2018-12-13T01:49:48.065Z,1.70
2018-12-13T01:52:14.027Z,1.10
2018-12-13T01:54:40.030Z,1.50
2018-12-13T01:57:06.026Z,1.27
2018-12-13T01:59:32.015Z,1.20
2018-12-13T02:01:57.978Z,1.40
2018-12-13T02:04:23.941Z,1.37
2018-12-13T02:06:49.939Z,1.43
2018-12-13T02:09:16.008Z,1.13
2018-12-13T02:11:41.992Z,1.30
2018-12-13T02:14:07.976Z,1.23
2018-12-13T02:16:33.943Z,1.20
2018-12-13T02:18:59.961Z,1.20
2018-12-13T02:21:25.915Z,1.20
2018-12-13T02:23:51.883Z,1.60
2018-12-13T02:26:17.869Z,1.13
2018-12-13T02:28:43.853Z,1.03
2018-12-13T02:31:09.827Z,1.67
2018-12-13T02:33:35.797Z,1.57
2018-12-13T02:36:01.766Z,1.27
2018-12-13T02:38:27.729Z,1.57
2018-12-13T02:40:56.631Z,1.10
2018-12-13T02:43:22.603Z,1.33
2018-12-13T02:45:48.598Z,1.13
2018-12-13T02:48:14.561Z,1.23
2018-12-13T02:50:40.543Z,1.30
2018-12-13T02:53:06.495Z,1.10
2018-12-13T02:55:32.444Z,1.27
2018-12-13T02:57:58.442Z,1.50
2018-12-13T03:00:24.409Z,1.10
2018-12-13T03:02:50.369Z,1.37
2018-12-13T03:05:16.333Z,1.00
2018-12-13T03:07:42.278Z,1.30
2018-12-13T03:10:08.269Z,1.10
2018-12-13T03:12:34.249Z,1.50
2018-12-13T03:15:00.207Z,1.33
2018-12-13T03:17:26.271Z,1.53
2018-12-13T03:19:52.259Z,1.47
2018-12-13T03:22:18.243Z,1.40
2018-12-13T03:24:44.214Z,1.40
2018-12-13T03:27:10.212Z,1.40
2018-12-13T03:29:36.241Z,1.00
2018-12-13T03:32:02.222Z,1.63
2018-12-13T03:34:28.218Z,1.20
2018-12-13T03:36:54.209Z,1.60
2018-12-13T03:39:20.177Z,1.40
2018-12-13T03:41:46.162Z,1.03
2018-12-13T03:44:12.165Z,1.13
2018-12-13T03:46:38.202Z,1.60
2018-12-13T03:49:04.199Z,1.23
2018-12-13T03:51:30.197Z,1.47
2018-12-13T03:53:56.166Z,1.50
2018-12-13T03:56:22.125Z,1.73
2018-12-13T03:58:48.096Z,1.50
2018-12-13T04:01:14.123Z,1.83
2018-12-13T04:03:40.094Z,1.50
2018-12-13T04:06:13.059Z,1.70
2018-12-13T04:08:39.027Z,1.30
2018-12-13T04:11:05.029Z,1.90
2018-12-13T04:13:31.021Z,0.87
2018-12-13T04:15:57.011Z,1.37
2018-12-13T04:18:22.996Z,1.33
2018-12-13T04:20:48.959Z,1.07
2018-12-13T04:23:14.945Z,1.30
2018-12-13T04:25:40.926Z,1.30
2018-12-13T04:28:06.937Z,1.80
2018-12-13T04:30:33.016Z,1.37
2018-12-13T04:32:59.003Z,1.20
2018-12-13T04:35:24.967Z,1.33
2018-12-13T04:37:50.978Z,1.30
2018-12-13T04:40:16.951Z,1.17
2018-12-13T04:42:42.921Z,1.27
2018-12-13T04:45:08.884Z,1.27
2018-12-13T04:47:34.854Z,1.20
2018-12-13T04:50:00.840Z,1.40
2018-12-13T04:52:26.795Z,1.37
2018-12-13T04:54:52.788Z,1.80
2018-12-13T04:57:18.771Z,1.67
2018-12-13T04:59:44.766Z,1.67
2018-12-13T05:02:10.762Z,1.60
2018-12-13T05:04:36.735Z,1.87
2018-12-13T05:07:02.707Z,1.37
2018-12-13T05:09:28.659Z,1.30
2018-12-13T05:11:54.640Z,1.60
2018-12-13T05:14:21.283Z,1.57
2018-12-13T05:16:47.275Z,1.60
2018-12-13T05:19:13.277Z,1.50
2018-12-13T05:21:39.307Z,1.90
2018-12-13T05:24:05.312Z,1.37
2018-12-13T05:26:31.297Z,1.60
2018-12-13T05:28:57.292Z,1.27
2018-12-13T05:31:23.284Z,1.23
2018-12-13T05:33:49.264Z,2.10
2018-12-13T05:36:15.260Z,1.37
2018-12-13T05:38:41.237Z,1.47
2018-12-13T05:41:07.215Z,1.60
2018-12-13T05:43:33.218Z,1.03
2018-12-13T05:45:59.179Z,1.30
2018-12-13T05:48:25.148Z,1.60
2018-12-13T05:50:51.116Z,1.60
2018-12-13T05:53:17.109Z,1.47
2018-12-13T05:55:43.071Z,1.63
2018-12-13T05:58:09.040Z,1.93
2018-12-13T06:00:34.999Z,1.77
2018-12-13T06:03:00.963Z,1.53
2018-12-13T06:05:26.957Z,1.33
2018-12-13T06:07:54.983Z,1.50
2018-12-13T06:10:21.097Z,1.40
2018-12-13T06:12:47.068Z,1.43
2018-12-13T06:15:13.195Z,1.20
2018-12-13T06:17:39.178Z,1.47
2018-12-13T06:20:05.144Z,1.17
2018-12-13T06:22:31.124Z,1.53
2018-12-13T06:24:57.108Z,1.70
2018-12-13T06:27:23.122Z,1.73
2018-12-13T06:29:49.097Z,2.10
2018-12-13T06:32:15.234Z,1.80
2018-12-13T06:34:41.228Z,1.73
2018-12-13T06:37:07.254Z,2.13
2018-12-13T06:39:33.255Z,1.70
2018-12-13T06:41:59.255Z,2.30
2018-12-13T06:44:25.240Z,1.90
2018-12-13T06:46:51.269Z,2.17
2018-12-13T06:49:17.256Z,2.30
2018-12-13T06:51:43.219Z,2.37
2018-12-13T06:54:09.223Z,2.13
2018-12-13T06:56:35.231Z,2.07
2018-12-13T06:59:01.210Z,2.47
2018-12-13T07:01:27.200Z,2.10
2018-12-13T07:03:53.207Z,2.17
2018-12-13T07:06:19.188Z,2.27
2018-12-13T07:08:45.165Z,2.00
2018-12-13T07:11:18.090Z,2.43
2018-12-13T07:13:44.095Z,2.13
2018-12-13T07:16:10.076Z,1.40
2018-12-13T07:18:36.095Z,2.33
2018-12-13T07:21:02.086Z,3.20
2018-12-13T07:23:28.099Z,2.30
2018-12-13T07:25:54.079Z,1.53
2018-12-13T07:28:20.087Z,2.00
2018-12-13T07:30:46.051Z,1.90
2018-12-13T07:33:12.019Z,2.07
2018-12-13T07:35:38.009Z,1.83
2018-12-13T07:38:04.049Z,2.07
2018-12-13T07:40:30.044Z,2.30
2018-12-13T07:42:56.037Z,1.43
2018-12-13T07:45:22.038Z,1.57
2018-12-13T07:47:48.000Z,1.83
2018-12-13T07:50:13.959Z,1.50
2018-12-13T07:52:39.940Z,2.00
2018-12-13T07:55:05.921Z,2.37
2018-12-13T07:57:31.890Z,2.10
2018-12-13T07:59:57.888Z,1.73
2018-12-13T08:02:23.859Z,1.87
2018-12-13T08:04:49.827Z,1.90
2018-12-13T08:07:15.810Z,1.97
2018-12-13T08:09:41.811Z,1.90
2018-12-13T08:12:07.831Z,2.27
2018-12-13T08:14:33.815Z,2.33
2018-12-13T08:16:59.802Z,2.23
2018-12-13T08:19:25.796Z,2.03
2018-12-13T08:21:51.809Z,2.37
2018-12-13T08:24:17.813Z,2.27
2018-12-13T08:26:43.783Z,2.37
2018-12-13T08:29:09.755Z,2.13
2018-12-13T08:31:35.698Z,2.23
2018-12-13T08:34:01.694Z,2.00
2018-12-13T08:36:27.678Z,1.83
2018-12-13T08:38:53.695Z,2.53
2018-12-13T08:41:19.690Z,1.67
2018-12-13T08:43:45.683Z,2.57
2018-12-13T08:46:11.663Z,2.23
2018-12-13T08:48:37.673Z,2.70
2018-12-13T08:51:03.657Z,3.03
2018-12-13T08:53:29.677Z,2.40
2018-12-13T08:55:55.672Z,2.57
2018-12-13T08:58:21.635Z,2.20
2018-12-13T09:00:47.615Z,2.10
2018-12-13T09:03:14.413Z,2.30
2018-12-13T09:05:40.577Z,2.13
2018-12-13T09:08:06.566Z,2.50
2018-12-13T09:10:32.567Z,1.77
2018-12-13T09:12:58.557Z,2.17
2018-12-13T09:15:24.581Z,2.10
2018-12-13T09:17:50.555Z,2.17
2018-12-13T09:20:16.552Z,2.90
2018-12-13T09:22:42.540Z,1.80
2018-12-13T09:25:08.528Z,2.07
2018-12-13T09:27:34.516Z,2.13
2018-12-13T09:30:00.511Z,2.20
2018-12-13T09:32:26.490Z,2.27
2018-12-13T09:34:52.518Z,2.13
2018-12-13T09:37:18.495Z,1.60
2018-12-13T09:39:44.457Z,2.10
2018-12-13T09:42:10.519Z,2.30
2018-12-13T09:44:36.552Z,2.00
2018-12-13T09:47:02.995Z,2.20
2018-12-13T09:49:28.970Z,2.23
2018-12-13T09:51:54.966Z,2.27
2018-12-13T09:54:20.919Z,2.13
2018-12-13T09:56:46.930Z,2.93
2018-12-13T09:59:12.931Z,2.10
2018-12-13T10:01:38.923Z,1.83
2018-12-13T10:04:04.922Z,2.00
2018-12-13T10:06:30.941Z,2.40
2018-12-13T10:08:57.023Z,2.40
2018-12-13T10:11:23.023Z,2.27
2018-12-13T10:13:49.015Z,2.47
2018-12-13T10:16:15.014Z,2.10
2018-12-13T10:18:41.002Z,2.70
2018-12-13T10:21:07.026Z,2.73
2018-12-13T10:23:33.045Z,2.00
2018-12-13T10:25:59.645Z,2.10
2018-12-13T10:28:25.852Z,2.30
2018-12-13T10:30:51.822Z,2.27
2018-12-13T10:33:17.793Z,1.90
2018-12-13T10:35:43.786Z,2.70
2018-12-13T10:38:09.762Z,2.30
2018-12-13T10:40:35.750Z,2.90
2018-12-13T10:43:01.764Z,2.40
2018-12-13T10:45:27.759Z,2.20
2018-12-13T10:47:53.767Z,2.60
2018-12-13T10:50:19.800Z,1.83
2018-12-13T10:52:45.770Z,2.53
2018-12-13T10:55:11.748Z,2.40
2018-12-13T10:57:37.814Z,1.90
2018-12-13T11:00:03.836Z,2.30
2018-12-13T11:02:32.714Z,1.67
2018-12-13T11:04:58.705Z,1.97
2018-12-13T11:07:24.678Z,2.83
2018-12-13T11:09:50.625Z,1.93
2018-12-13T11:12:16.628Z,2.00
2018-12-13T11:14:42.667Z,2.30
2018-12-13T11:17:08.709Z,1.83
2018-12-13T11:19:34.718Z,2.50
2018-12-13T11:22:00.764Z,2.73
2018-12-13T11:24:26.823Z,2.10
2018-12-13T11:26:52.983Z,2.20
2018-12-13T11:29:18.956Z,2.30
2018-12-13T11:31:44.932Z,2.20
2018-12-13T11:34:10.928Z,1.97
2018-12-13T11:36:36.900Z,1.80
2018-12-13T11:39:05.902Z,2.37
2018-12-13T11:41:31.519Z,1.57
2018-12-13T11:43:57.511Z,2.13
2018-12-13T11:46:23.502Z,2.20
2018-12-13T11:48:49.487Z,2.60
2018-12-13T11:51:15.495Z,2.00
2018-12-13T11:53:41.511Z,2.07
2018-12-13T11:56:07.491Z,2.30
2018-12-13T11:58:33.472Z,2.10
2018-12-13T12:00:59.439Z,2.60
2018-12-13T12:03:25.435Z,2.00
2018-12-13T12:05:51.431Z,2.20
2018-12-13T12:08:17.399Z,2.57
2018-12-13T12:10:43.388Z,2.10
2018-12-13T12:13:09.372Z,2.00
2018-12-13T12:15:35.357Z,2.30
2018-12-13T12:18:01.315Z,2.10
2018-12-13T12:20:27.297Z,1.83
2018-12-13T12:22:53.291Z,2.17
2018-12-13T12:25:19.279Z,2.30
2018-12-13T12:27:45.334Z,2.03
2018-12-13T12:30:11.334Z,2.17
2018-12-13T12:32:37.297Z,2.27
2018-12-13T12:35:03.274Z,2.43
2018-12-13T12:37:29.248Z,2.33
2018-12-13T12:39:55.247Z,2.23
2018-12-13T12:42:21.216Z,2.13
2018-12-13T12:44:47.177Z,2.47
2018-12-13T12:47:13.151Z,2.47
2018-12-13T12:49:39.111Z,1.40
2018-12-13T12:52:05.093Z,2.10
2018-12-13T12:54:31.061Z,2.03
2018-12-13T12:56:57.494Z,2.80
2018-12-13T12:59:23.479Z,1.87
2018-12-13T13:01:49.479Z,1.60
2018-12-13T13:04:15.454Z,2.07
2018-12-13T13:06:41.431Z,2.13
2018-12-13T13:09:07.407Z,2.53
2018-12-13T13:11:33.426Z,2.27
2018-12-13T13:13:59.419Z,2.17
2018-12-13T13:16:25.371Z,2.10
2018-12-13T13:18:51.377Z,1.60
2018-12-13T13:21:17.367Z,2.23
2018-12-13T13:23:43.313Z,2.10
2018-12-13T13:26:09.293Z,2.07
2018-12-13T13:28:35.265Z,2.73
2018-12-13T13:31:01.267Z,2.50
2018-12-13T13:33:27.243Z,2.50
2018-12-13T13:35:53.224Z,1.43
2018-12-13T13:38:19.210Z,2.37
2018-12-13T13:40:45.193Z,2.00
2018-12-13T13:43:11.152Z,2.10
2018-12-13T13:45:37.142Z,1.53
2018-12-13T13:48:03.143Z,2.27
2018-12-13T13:50:29.183Z,2.67
2018-12-13T13:52:55.290Z,2.00
2018-12-13T13:55:21.290Z,2.70
2018-12-13T13:57:47.257Z,1.90
2018-12-13T14:00:13.238Z,2.00
2018-12-13T14:02:39.222Z,2.27
2018-12-13T14:05:05.304Z,2.27
2018-12-13T14:07:31.278Z,2.20
2018-12-13T14:09:57.249Z,2.17
2018-12-13T14:12:23.236Z,1.90
2018-12-13T14:14:49.211Z,2.07
2018-12-13T14:17:15.161Z,2.30
2018-12-13T14:19:41.147Z,2.40
2018-12-13T14:22:07.147Z,1.93
2018-12-13T14:24:33.122Z,2.30
2018-12-13T14:26:59.807Z,2.33
2018-12-13T14:29:25.782Z,2.27
2018-12-13T14:31:51.760Z,2.00
2018-12-13T14:34:17.775Z,1.90
2018-12-13T14:36:43.737Z,2.60
2018-12-13T14:39:09.753Z,2.10
2018-12-13T14:41:35.742Z,1.90
2018-12-13T14:44:01.725Z,2.07
2018-12-13T14:46:27.723Z,2.50
2018-12-13T14:48:53.741Z,2.20
2018-12-13T14:51:19.721Z,2.27
2018-12-13T14:53:45.745Z,2.03
2018-12-13T14:56:11.738Z,2.63
2018-12-13T14:58:37.717Z,2.33
2018-12-13T15:01:03.703Z,2.53
2018-12-13T15:03:29.675Z,2.30
2018-12-13T15:05:55.664Z,1.90
2018-12-13T15:08:21.664Z,2.63
2018-12-13T15:10:47.661Z,2.27
2018-12-13T15:13:13.619Z,2.40
2018-12-13T15:15:39.623Z,2.17
2018-12-13T15:18:05.621Z,2.53
2018-12-13T15:20:31.660Z,2.00
2018-12-13T15:22:57.629Z,2.17
2018-12-13T15:25:23.645Z,2.00
2018-12-13T15:27:49.624Z,2.10
2018-12-13T15:30:15.593Z,2.37
2018-12-13T15:32:41.608Z,2.37
2018-12-13T15:35:07.592Z,2.27
2018-12-13T15:37:33.556Z,2.27
2018-12-13T15:39:59.558Z,1.93
2018-12-13T15:42:25.520Z,1.93
2018-12-13T15:44:51.487Z,2.07
2018-12-13T15:47:17.480Z,2.73
2018-12-13T15:49:43.903Z,1.60
2018-12-13T15:52:09.910Z,2.60
2018-12-13T15:54:35.915Z,2.30
2018-12-13T15:57:01.921Z,1.90
2018-12-13T15:59:27.856Z,2.23
2018-12-13T16:01:53.856Z,2.40
2018-12-13T16:04:19.852Z,2.07
2018-12-13T16:06:45.871Z,2.60
2018-12-13T16:09:11.845Z,2.47
2018-12-13T16:11:37.854Z,1.90
2018-12-13T16:14:03.845Z,2.37
2018-12-13T16:16:29.855Z,2.50
2018-12-13T16:18:55.886Z,2.43
2018-12-13T16:21:21.992Z,2.00
2018-12-13T16:23:47.961Z,2.77
2018-12-13T16:26:13.961Z,1.97
2018-12-13T16:28:39.987Z,2.87
2018-12-13T16:31:05.947Z,2.27
2018-12-13T16:33:31.942Z,1.67
2018-12-13T16:35:57.920Z,1.90
2018-12-13T16:38:23.914Z,2.13
2018-12-13T16:40:49.912Z,2.57
2018-12-13T16:43:15.920Z,2.10
2018-12-13T16:45:41.925Z,2.13
2018-12-13T16:48:07.896Z,2.10
2018-12-13T16:50:33.871Z,2.60
2018-12-13T16:52:59.855Z,2.70
2018-12-13T16:55:25.853Z,2.07
2018-12-13T16:57:51.831Z,2.20
2018-12-13T17:00:17.944Z,2.20
2018-12-13T17:02:43.924Z,1.80
2018-12-13T17:05:09.937Z,2.57
2018-12-13T17:07:35.907Z,1.90
2018-12-13T17:10:01.949Z,1.93
2018-12-13T17:12:27.929Z,2.50
2018-12-13T17:14:53.940Z,2.23
2018-12-13T17:17:19.937Z,2.53
2018-12-13T17:19:45.898Z,2.10
2018-12-13T17:22:11.922Z,2.37
2018-12-13T17:24:37.877Z,2.27
2018-12-13T17:27:03.892Z,2.50
2018-12-13T17:29:29.864Z,2.40
2018-12-13T17:31:55.870Z,2.57
2018-12-13T17:34:21.868Z,2.30
2018-12-13T17:36:47.827Z,2.70
2018-12-13T17:39:13.814Z,2.20
2018-12-13T17:41:39.860Z,2.03
2018-12-13T17:44:05.914Z,2.40
2018-12-13T17:46:31.901Z,2.53
2018-12-13T17:48:57.903Z,2.03
2018-12-13T17:51:23.870Z,2.63
2018-12-13T17:53:49.880Z,2.30
2018-12-13T17:56:15.921Z,2.50
2018-12-13T17:58:41.912Z,2.67
2018-12-13T18:01:07.886Z,2.30
2018-12-13T18:03:33.884Z,2.07
2018-12-13T18:05:59.913Z,2.57
2018-12-13T18:08:25.919Z,1.93
2018-12-13T18:10:51.908Z,2.30
2018-12-13T18:13:17.911Z,2.60
2018-12-13T18:15:43.914Z,2.23
2018-12-13T18:18:09.892Z,2.77
2018-12-13T18:20:35.891Z,2.40
2018-12-13T18:23:01.924Z,2.10
2018-12-13T18:25:27.932Z,2.50
2018-12-13T18:27:53.904Z,2.33
2018-12-13T18:30:19.893Z,2.30
2018-12-13T18:32:45.880Z,2.73
2018-12-13T18:35:12.841Z,1.93
2018-12-13T18:37:38.868Z,2.57
2018-12-13T18:40:04.893Z,2.53
2018-12-13T18:42:30.915Z,2.60
2018-12-13T18:44:56.953Z,2.80
2018-12-13T18:47:22.955Z,2.63
2018-12-13T18:49:48.953Z,2.27
2018-12-13T18:52:14.958Z,2.17
2018-12-13T18:54:40.937Z,2.20
2018-12-13T18:57:06.937Z,2.20
2018-12-13T18:59:32.983Z,2.87
2018-12-13T19:01:58.959Z,2.73
2018-12-13T19:04:24.945Z,2.27
2018-12-13T19:06:51.509Z,2.70
2018-12-13T19:09:17.513Z,2.90
2018-12-13T19:11:43.476Z,2.23
2018-12-13T19:14:09.494Z,2.67
2018-12-13T19:16:35.524Z,2.40
2018-12-13T19:19:01.511Z,2.00
2018-12-13T19:21:27.509Z,3.07
2018-12-13T19:23:53.501Z,2.50
2018-12-13T19:26:19.501Z,2.60
2018-12-13T19:28:45.521Z,3.27
2018-12-13T19:31:11.503Z,2.23
2018-12-13T19:33:37.500Z,2.80
2018-12-13T19:36:03.520Z,2.50
2018-12-13T19:38:29.487Z,3.07
2018-12-13T19:40:55.490Z,2.40
2018-12-13T19:43:21.480Z,2.67
2018-12-13T19:45:47.483Z,2.50
2018-12-13T19:48:13.477Z,2.37
2018-12-13T19:50:39.605Z,3.60
2018-12-13T19:53:05.942Z,2.67
2018-12-13T19:55:31.914Z,2.90
2018-12-13T19:57:57.908Z,2.70
2018-12-13T20:00:23.930Z,3.00
2018-12-13T20:02:49.926Z,3.30
2018-12-13T20:05:15.894Z,3.00
2018-12-13T20:07:41.885Z,2.60
2018-12-13T20:10:07.888Z,2.37
2018-12-13T20:12:33.886Z,2.83
2018-12-13T20:14:59.916Z,2.53
2018-12-13T20:17:25.896Z,2.67
2018-12-13T20:19:51.884Z,3.23
2018-12-13T20:22:17.866Z,2.50
2018-12-13T20:24:43.876Z,2.30
2018-12-13T20:27:09.892Z,3.20
2018-12-13T20:29:36.215Z,2.57
2018-12-13T20:32:02.222Z,3.23
2018-12-13T20:34:28.217Z,2.37
2018-12-13T20:36:54.231Z,2.77
2018-12-13T20:39:20.222Z,3.53
2018-12-13T20:41:46.197Z,2.70
2018-12-13T20:44:12.186Z,3.13
2018-12-13T20:46:38.190Z,2.23
2018-12-13T20:49:04.182Z,3.67
2018-12-13T20:51:30.170Z,2.40
2018-12-13T20:53:56.144Z,2.53
2018-12-13T20:56:22.114Z,2.80
2018-12-13T20:58:48.127Z,2.93
2018-12-13T21:01:14.110Z,3.33
2018-12-13T21:03:40.120Z,2.83
2018-12-13T21:06:06.119Z,2.27
2018-12-13T21:08:32.103Z,3.00
2018-12-13T21:10:58.096Z,2.47
2018-12-13T21:13:24.079Z,2.57
2018-12-13T21:15:50.066Z,2.83
2018-12-13T21:18:16.122Z,2.90
2018-12-13T21:20:42.121Z,3.00
2018-12-13T21:23:08.125Z,2.83
2018-12-13T21:25:34.141Z,3.30
2018-12-13T21:28:00.114Z,2.97
2018-12-13T21:30:26.186Z,2.73
2018-12-13T21:32:52.178Z,2.23
2018-12-13T21:35:18.178Z,3.23
2018-12-13T21:37:44.164Z,3.03
2018-12-13T21:40:10.180Z,2.70
2018-12-13T21:42:36.176Z,2.63
2018-12-13T21:45:02.170Z,3.53
2018-12-13T21:47:28.168Z,2.63
2018-12-13T21:49:54.166Z,3.10
2018-12-13T21:52:20.156Z,2.67
2018-12-13T21:54:46.136Z,2.60
2018-12-13T21:57:12.420Z,2.47
2018-12-13T21:59:38.437Z,2.63
2018-12-13T22:02:04.468Z,3.27
2018-12-13T22:04:30.444Z,2.93
2018-12-13T22:06:57.381Z,2.27
2018-12-13T22:09:23.333Z,3.10
2018-12-13T22:11:49.330Z,2.70
2018-12-13T22:14:15.316Z,2.87
2018-12-13T22:16:41.284Z,2.53
2018-12-13T22:19:07.265Z,3.00
2018-12-13T22:21:33.270Z,2.57
2018-12-13T22:23:59.266Z,2.97
2018-12-13T22:26:25.233Z,2.77
2018-12-13T22:28:51.250Z,3.17
2018-12-13T22:31:17.254Z,3.03
2018-12-13T22:33:43.267Z,2.77
2018-12-13T22:36:09.251Z,3.47
2018-12-13T22:38:35.267Z,2.87
2018-12-13T22:41:01.293Z,2.90
2018-12-13T22:43:27.302Z,2.97
2018-12-13T22:45:53.302Z,2.70
2018-12-13T22:48:19.273Z,2.73
2018-12-13T22:50:45.270Z,3.23
2018-12-13T22:53:11.258Z,2.67
2018-12-13T22:55:37.236Z,2.60
2018-12-13T22:58:03.206Z,3.37
2018-12-13T23:00:29.323Z,2.60
2018-12-13T23:02:55.405Z,2.63
2018-12-13T23:05:21.365Z,3.10
2018-12-13T23:07:47.498Z,3.10
2018-12-13T23:10:13.458Z,3.53
2018-12-13T23:12:39.458Z,3.07
2018-12-13T23:15:06.384Z,2.33
2018-12-13T23:17:32.404Z,2.57
2018-12-13T23:19:58.418Z,2.93
2018-12-13T23:22:24.406Z,3.00
2018-12-13T23:24:50.379Z,3.13
2018-12-13T23:27:16.384Z,3.10
2018-12-13T23:29:42.390Z,2.73
2018-12-13T23:32:08.414Z,3.23
2018-12-13T23:34:34.394Z,2.73
2018-12-13T23:37:00.822Z,3.10
2018-12-13T23:39:26.822Z,3.13
2018-12-13T23:41:52.820Z,3.50
2018-12-13T23:44:18.810Z,4.13
2018-12-13T23:46:44.790Z,2.83
2018-12-13T23:49:10.795Z,3.03
2018-12-13T23:51:36.758Z,3.60
2018-12-13T23:54:02.734Z,2.40
2018-12-13T23:56:28.732Z,3.10
2018-12-13T23:58:55.039Z,2.90
